Time;durP1;ratioP1;P1;durP2;ratioP2;P2;SDS_P1;SDS_P2;PMS_P1;PMS_P2;Temp;Humidity;BMP_temperature;BMP_pressure;BME280_temperature;BME280_humidity;BME280_pressure;Samples;Min_cycle;Max_cycle;Signal;HPM_P1;HPM_P2
2021/12/10 00:01:39;;;;;;;0.30;0.10;;;1.20;99.90;;;;;;5072533;28;20550;-90
2021/12/10 00:04:10;;;;;;;0.30;0.10;;;1.20;99.90;;;;;;5063393;28;20207;-90
2021/12/10 00:06:39;;;;;;;0.30;0.10;;;1.20;99.90;;;;;;5065393;28;20193;-89
2021/12/10 00:09:10;;;;;;;0.30;0.10;;;1.20;99.90;;;;;;5066867;28;20202;-89
2021/12/10 00:11:41;;;;;;;0.30;0.10;;;1.10;99.90;;;;;;5069248;28;20233;-90
2021/12/10 00:14:09;;;;;;;0.30;0.10;;;1.20;99.90;;;;;;5070196;28;20597;-89
2021/12/10 00:16:37;;;;;;;0.30;0.10;;;1.20;99.90;;;;;;5063084;28;20198;-89
2021/12/10 00:21:50;;;;;;;0.30;0.17;;;1.10;99.90;;;;;;5069234;28;20431;-88
2021/12/10 00:24:20;;;;;;;0.30;0.10;;;1.10;99.90;;;;;;5061632;28;20204;-88
2021/12/10 00:26:48;;;;;;;0.30;0.10;;;1.10;99.90;;;;;;5069801;28;20236;-89
2021/12/10 00:29:17;;;;;;;0.30;0.10;;;1.10;99.90;;;;;;5070006;28;20252;-89
2021/12/10 00:31:49;;;;;;;0.30;0.10;;;1.10;99.90;;;;;;5071247;28;20474;-90
2021/12/10 00:34:22;;;;;;;0.30;0.10;;;1.10;99.90;;;;;;5071392;28;21056;-90
2021/12/10 00:36:52;;;;;;;0.30;0.10;;;1.10;99.90;;;;;;5064951;28;20202;-91
2021/12/10 00:39:23;;;;;;;0.30;0.10;;;1.10;99.90;;;;;;5056909;28;20644;-89
2021/12/10 00:41:50;;;;;;;0.30;0.10;;;1.10;99.90;;;;;;5056771;28;20239;-89
2021/12/10 00:44:17;;;;;;;0.30;0.30;;;1.10;99.90;;;;;;5050780;28;20921;-90
2021/12/10 00:46:45;;;;;;;0.30;0.10;;;1.10;99.90;;;;;;5066950;28;20635;-89
2021/12/10 00:49:13;;;;;;;0.30;0.10;;;1.10;99.90;;;;;;5053220;28;20715;-89
2021/12/10 00:51:40;;;;;;;0.30;0.10;;;1.10;99.90;;;;;;5078408;28;20200;-89
2021/12/10 00:54:11;;;;;;;0.30;0.10;;;1.10;99.90;;;;;;5076882;28;20207;-89
2021/12/10 00:56:40;;;;;;;0.30;0.10;;;1.10;99.90;;;;;;5069637;28;20278;-88
2021/12/10 00:59:08;;;;;;;0.30;0.10;;;1.00;99.90;;;;;;5068440;28;20206;-89
2021/12/10 01:01:35;;;;;;;0.30;0.10;;;1.00;99.90;;;;;;5059067;28;20551;-89
2021/12/10 01:04:07;;;;;;;0.30;0.20;;;1.00;99.90;;;;;;5062583;28;20204;-93
2021/12/10 01:06:35;;;;;;;0.30;0.10;;;0.90;99.90;;;;;;5070467;28;20212;-90
2021/12/10 01:09:07;;;;;;;0.30;0.10;;;0.90;99.90;;;;;;5070270;28;20261;-89
2021/12/10 01:11:39;;;;;;;0.30;0.10;;;0.80;99.90;;;;;;5066855;28;20596;-89
2021/12/10 01:14:14;;;;;;;0.30;0.10;;;0.90;99.90;;;;;;5065712;28;20201;-91
2021/12/10 01:25:09;;;;;;;0.30;0.10;;;0.80;99.90;;;;;;5059918;28;20258;-92
2021/12/10 01:27:39;;;;;;;0.30;0.10;;;0.80;99.90;;;;;;5049773;28;20231;-89
2021/12/10 01:30:17;;;;;;;0.30;0.10;;;0.90;99.90;;;;;;5068688;28;20918;-89
2021/12/10 01:32:49;;;;;;;0.30;0.10;;;0.80;99.90;;;;;;5069708;28;20192;-89
2021/12/10 01:35:21;;;;;;;0.30;0.10;;;0.80;99.90;;;;;;5067284;28;20436;-91
2021/12/10 01:37:49;;;;;;;0.30;0.10;;;0.80;99.90;;;;;;5070187;28;20280;-90
2021/12/10 01:40:19;;;;;;;1.95;0.95;;;0.70;99.90;;;;;;5063336;28;20651;-89
2021/12/10 01:42:51;;;;;;;0.30;0.10;;;0.80;99.90;;;;;;5059143;28;20283;-92
2021/12/10 01:45:22;;;;;;;0.30;0.10;;;0.70;99.90;;;;;;5063901;28;20282;-90
2021/12/10 01:47:55;;;;;;;0.30;0.10;;;0.70;99.90;;;;;;5071387;28;20218;-89
2021/12/10 01:50:23;;;;;;;0.30;0.10;;;0.60;99.90;;;;;;5073888;28;20201;-88
2021/12/10 01:52:55;;;;;;;0.30;0.10;;;0.60;99.90;;;;;;5075794;28;20728;-89
2021/12/10 01:55:24;;;;;;;0.30;0.20;;;0.60;99.90;;;;;;5069647;28;20196;-92
2021/12/10 01:57:55;;;;;;;0.30;0.10;;;0.60;99.90;;;;;;5055654;28;20559;-89
2021/12/10 02:00:26;;;;;;;0.30;0.10;;;0.50;99.90;;;;;;5069832;28;20517;-88
2021/12/10 02:02:53;;;;;;;0.30;0.10;;;0.40;99.90;;;;;;5063277;28;20197;-89
2021/12/10 02:05:21;;;;;;;0.30;0.10;;;0.40;99.90;;;;;;5068381;28;20204;-89
2021/12/10 02:07:49;;;;;;;0.30;0.10;;;0.40;99.90;;;;;;5072286;28;20216;-88
2021/12/10 02:10:19;;;;;;;0.30;0.10;;;0.30;99.90;;;;;;5066871;28;20200;-90
2021/12/10 02:12:46;;;;;;;0.30;0.10;;;0.20;99.90;;;;;;5068407;28;20508;-90
2021/12/10 02:15:15;;;;;;;0.30;0.10;;;0.20;99.90;;;;;;5068749;28;20229;-90
2021/12/10 02:17:45;;;;;;;0.30;0.10;;;0.20;99.90;;;;;;5069141;28;20198;-89
2021/12/10 02:20:16;;;;;;;0.30;0.10;;;0.10;99.90;;;;;;5069128;28;20303;-89
2021/12/10 02:22:45;;;;;;;0.30;0.10;;;0.10;99.90;;;;;;5059768;28;20536;-89
2021/12/10 02:25:14;;;;;;;0.30;0.10;;;0.00;99.90;;;;;;5066399;28;20636;-89
2021/12/10 02:27:41;;;;;;;0.30;0.10;;;0.00;99.90;;;;;;5067344;28;20279;-91
2021/12/10 02:30:10;;;;;;;0.30;0.10;;;-0.10;99.90;;;;;;5068890;28;20204;-88
2021/12/10 02:32:37;;;;;;;0.30;0.10;;;-0.10;99.90;;;;;;5070109;28;20245;-88
2021/12/10 02:35:06;;;;;;;0.30;0.10;;;-0.20;99.90;;;;;;5068704;28;20540;-91
2021/12/10 02:37:33;;;;;;;0.30;0.10;;;-0.20;99.90;;;;;;5069833;28;20240;-90
2021/12/10 02:40:02;;;;;;;0.30;0.10;;;-0.40;99.90;;;;;;5073030;28;20225;-88
2021/12/10 02:42:29;;;;;;;0.30;0.10;;;-0.40;99.90;;;;;;5074193;28;20589;-89
2021/12/10 02:44:56;;;;;;;0.43;0.43;;;-0.60;99.90;;;;;;5074994;28;20267;-91
2021/12/10 02:47:23;;;;;;;0.30;0.10;;;-0.70;99.90;;;;;;5088368;28;20612;-88
2021/12/10 02:49:51;;;;;;;0.30;0.10;;;-0.70;99.90;;;;;;5083350;28;20200;-92
2021/12/10 02:52:21;;;;;;;0.30;0.10;;;-0.60;99.90;;;;;;5063085;28;20715;-89
2021/12/10 02:54:48;;;;;;;0.30;0.10;;;-0.80;99.90;;;;;;5070760;28;20254;-91
2021/12/10 02:57:19;;;;;;;0.30;0.10;;;-0.80;99.90;;;;;;5063715;28;20196;-89
2021/12/10 02:59:46;;;;;;;0.30;0.10;;;-0.80;99.90;;;;;;5070276;28;20236;-89
2021/12/10 03:02:17;;;;;;;0.30;0.10;;;-0.90;99.90;;;;;;5072804;28;20630;-92
2021/12/10 03:04:45;;;;;;;0.30;0.10;;;-1.00;99.90;;;;;;5072404;28;20921;-89
2021/12/10 03:07:15;;;;;;;0.30;0.10;;;-1.00;99.90;;;;;;5064896;28;20204;-91
2021/12/10 03:09:44;;;;;;;0.30;0.10;;;-1.00;99.90;;;;;;5072746;28;20707;-89
2021/12/10 03:12:12;;;;;;;0.30;0.10;;;-1.10;99.90;;;;;;5067971;28;20674;-91
2021/12/10 03:14:42;;;;;;;0.30;0.10;;;-1.20;99.90;;;;;;5069997;28;20256;-91
2021/12/10 03:17:13;;;;;;;0.30;0.10;;;-1.20;99.90;;;;;;5068659;28;20213;-90
2021/12/10 03:19:41;;;;;;;0.30;0.10;;;-1.30;99.90;;;;;;5069317;28;20263;-90
2021/12/10 03:22:08;;;;;;;0.30;0.10;;;-1.40;99.90;;;;;;5068192;28;20200;-92
2021/12/10 03:24:35;;;;;;;0.30;0.10;;;-1.40;99.90;;;;;;5072485;28;20199;-89
2021/12/10 03:27:05;;;;;;;0.30;0.10;;;-1.30;99.90;;;;;;5074814;28;20804;-90
2021/12/10 03:29:35;;;;;;;0.30;0.10;;;-1.20;99.90;;;;;;5072113;28;20555;-90
2021/12/10 03:32:07;;;;;;;0.30;0.10;;;-1.20;99.90;;;;;;5071893;28;20661;-89
2021/12/10 03:34:35;;;;;;;0.30;0.10;;;-1.20;99.90;;;;;;5072685;28;20251;-90
2021/12/10 03:37:02;;;;;;;0.30;0.10;;;-1.20;99.90;;;;;;5077568;28;20216;-90
2021/12/10 03:39:29;;;;;;;0.30;0.17;;;-1.10;99.90;;;;;;5071737;28;20200;-90
2021/12/10 03:41:58;;;;;;;0.30;0.10;;;-1.20;99.90;;;;;;5080389;28;20543;-92
2021/12/10 03:44:25;;;;;;;0.30;0.10;;;-1.20;99.90;;;;;;5081473;28;20450;-89
2021/12/10 03:46:54;;;;;;;0.30;0.10;;;-1.10;99.90;;;;;;5076663;28;20197;-90
2021/12/10 03:49:22;;;;;;;0.30;0.10;;;-1.10;99.90;;;;;;5071319;28;20293;-91
2021/12/10 03:51:50;;;;;;;0.30;0.10;;;-1.10;99.90;;;;;;5060146;28;20277;-90
2021/12/10 03:54:17;;;;;;;0.30;0.10;;;-1.10;99.90;;;;;;5069807;28;20537;-89
2021/12/10 03:56:46;;;;;;;0.30;0.10;;;-1.00;99.90;;;;;;5055105;28;20227;-90
2021/12/10 03:59:16;;;;;;;0.30;0.10;;;-1.00;99.90;;;;;;5070987;28;20201;-89
2021/12/10 04:01:48;;;;;;;0.30;0.10;;;-1.00;99.90;;;;;;5071732;28;20201;-92
2021/12/10 04:04:19;;;;;;;0.30;0.10;;;-1.00;99.90;;;;;;5071031;28;20316;-89
2021/12/10 04:06:48;;;;;;;0.30;0.10;;;-1.00;99.90;;;;;;5071336;28;20218;-89
2021/12/10 04:09:16;;;;;;;0.30;0.10;;;-1.00;99.90;;;;;;5068873;28;20217;-89
2021/12/10 04:11:43;;;;;;;0.30;0.10;;;-1.10;99.90;;;;;;5055445;28;20200;-89
2021/12/10 04:14:11;;;;;;;0.30;0.10;;;-1.00;99.90;;;;;;5070543;28;20734;-89
2021/12/10 04:16:38;;;;;;;0.30;0.10;;;-1.10;99.90;;;;;;5066189;28;20192;-90
2021/12/10 04:19:09;;;;;;;0.30;0.10;;;-1.10;99.90;;;;;;5071009;28;20265;-89
2021/12/10 04:21:40;;;;;;;0.30;0.10;;;-1.20;99.90;;;;;;5070873;28;20208;-90
2021/12/10 04:24:11;;;;;;;0.30;0.10;;;-1.30;99.90;;;;;;5068118;28;20654;-88
2021/12/10 04:26:38;;;;;;;0.30;0.10;;;-1.40;99.90;;;;;;5054053;28;20296;-89
2021/12/10 04:29:06;;;;;;;0.30;0.10;;;-1.40;99.90;;;;;;5059818;28;20233;-90
2021/12/10 04:31:33;;;;;;;0.30;0.10;;;-1.30;99.90;;;;;;5069527;28;20718;-89
2021/12/10 04:34:00;;;;;;;0.30;0.10;;;-1.30;99.90;;;;;;5056579;28;20229;-90
2021/12/10 04:36:28;;;;;;;0.30;0.10;;;-1.40;99.90;;;;;;5052278;28;20200;-89
2021/12/10 04:38:55;;;;;;;0.68;0.68;;;-1.40;99.90;;;;;;5078170;28;20263;-89
2021/12/10 04:41:24;;;;;;;0.30;0.10;;;-1.60;99.90;;;;;;5076012;28;20195;-90
2021/12/10 04:43:52;;;;;;;0.30;0.10;;;-1.50;99.90;;;;;;5065701;28;20369;-89
2021/12/10 04:46:20;;;;;;;0.30;0.10;;;-1.40;99.90;;;;;;5063096;28;20199;-91
2021/12/10 04:48:54;;;;;;;0.30;0.10;;;-1.60;99.90;;;;;;5064985;28;20223;-91
2021/12/10 04:51:24;;;;;;;0.30;0.10;;;-1.50;99.90;;;;;;5060429;28;20718;-92
2021/12/10 04:53:52;;;;;;;0.30;0.10;;;-1.60;99.90;;;;;;5065385;28;20696;-91
2021/12/10 04:56:20;;;;;;;0.30;0.10;;;-1.70;99.90;;;;;;5065381;28;20261;-90
2021/12/10 04:58:49;;;;;;;0.30;0.10;;;-1.70;99.90;;;;;;5070262;28;20201;-89
2021/12/10 05:01:16;;;;;;;2.47;0.60;;;-1.80;99.90;;;;;;5059295;28;20251;-89
2021/12/10 05:03:43;;;;;;;0.30;0.10;;;-1.90;99.90;;;;;;5070733;28;20205;-89
2021/12/10 05:06:11;;;;;;;0.30;0.10;;;-1.90;99.90;;;;;;5068234;28;20711;-90
2021/12/10 05:08:39;;;;;;;0.30;0.10;;;-1.90;99.90;;;;;;5056081;28;20229;-89
2021/12/10 05:11:10;;;;;;;0.30;0.10;;;-1.90;99.90;;;;;;5061465;28;20205;-91
2021/12/10 05:13:40;;;;;;;0.30;0.10;;;-1.90;99.90;;;;;;5061305;28;20698;-90
2021/12/10 05:16:10;;;;;;;0.30;0.10;;;-1.80;99.90;;;;;;5057794;28;20230;-89
2021/12/10 05:18:40;;;;;;;0.30;0.22;;;-1.80;99.90;;;;;;5056265;28;20208;-89
2021/12/10 05:21:11;;;;;;;0.30;0.10;;;-1.80;99.90;;;;;;5062259;28;20198;-89
2021/12/10 05:23:38;;;;;;;0.30;0.10;;;-1.90;99.90;;;;;;5062518;28;20198;-89
2021/12/10 05:26:06;;;;;;;0.30;0.10;;;-1.90;99.90;;;;;;5066340;28;20714;-90
2021/12/10 05:28:34;;;;;;;0.30;0.20;;;-1.90;99.90;;;;;;5067006;28;20235;-91
2021/12/10 05:31:02;;;;;;;0.30;0.10;;;-1.90;99.90;;;;;;5068679;28;20211;-89
2021/12/10 05:33:31;;;;;;;0.30;0.10;;;-2.00;99.90;;;;;;5068857;28;20195;-88
2021/12/10 05:36:00;;;;;;;0.30;0.10;;;-2.10;99.90;;;;;;5058166;28;20269;-89
2021/12/10 05:38:28;;;;;;;0.30;0.10;;;-2.10;99.90;;;;;;5070316;28;20251;-91
2021/12/10 05:40:57;;;;;;;0.30;0.10;;;-2.20;99.90;;;;;;5060512;28;20649;-89
2021/12/10 05:43:24;;;;;;;0.30;0.10;;;-2.10;99.90;;;;;;5050764;28;20202;-90
2021/12/10 05:45:52;;;;;;;0.30;0.10;;;-2.00;99.90;;;;;;5066237;28;20271;-90
2021/12/10 05:48:19;;;;;;;0.30;0.10;;;-1.90;99.90;;;;;;5069582;28;20255;-90
2021/12/10 05:50:48;;;;;;;0.30;0.10;;;-2.00;99.90;;;;;;5055645;28;20260;-90
2021/12/10 05:53:15;;;;;;;0.40;0.20;;;-2.10;99.90;;;;;;5060958;28;20222;-89
2021/12/10 05:55:44;;;;;;;0.30;0.10;;;-2.10;99.90;;;;;;5046492;28;20261;-90
2021/12/10 05:58:12;;;;;;;0.30;0.10;;;-2.10;99.90;;;;;;5062871;28;20198;-90
2021/12/10 06:00:41;;;;;;;0.30;0.10;;;-2.00;99.90;;;;;;5053601;28;20577;-90
2021/12/10 06:03:09;;;;;;;0.30;0.10;;;-2.00;99.90;;;;;;5053629;28;20203;-90
2021/12/10 06:05:37;;;;;;;0.30;0.10;;;-2.00;99.90;;;;;;5055098;28;20194;-90
2021/12/10 06:08:07;;;;;;;0.30;0.10;;;-1.90;99.90;;;;;;5050297;28;20284;-90
2021/12/10 06:10:35;;;;;;;0.30;0.10;;;-2.00;99.90;;;;;;5068578;28;20278;-91
2021/12/10 06:13:03;;;;;;;0.30;0.20;;;-2.00;99.90;;;;;;5075965;28;20198;-90
2021/12/10 06:15:30;;;;;;;0.30;0.10;;;-2.10;99.90;;;;;;5076442;28;20600;-91
2021/12/10 06:17:58;;;;;;;0.30;0.10;;;-2.00;99.90;;;;;;5078001;28;20197;-90
2021/12/10 06:20:29;;;;;;;0.30;0.10;;;-2.00;99.90;;;;;;5073909;28;20197;-90
2021/12/10 06:22:57;;;;;;;0.30;0.10;;;-2.00;99.90;;;;;;5073599;28;20286;-90
2021/12/10 06:25:25;;;;;;;0.30;0.10;;;-2.10;99.90;;;;;;5071285;28;20200;-89
2021/12/10 06:27:52;;;;;;;0.30;0.10;;;-2.20;99.90;;;;;;5058268;28;20233;-89
2021/12/10 06:30:22;;;;;;;0.30;0.10;;;-2.20;99.90;;;;;;5073390;28;20214;-90
2021/12/10 06:32:52;;;;;;;0.30;0.10;;;-2.10;99.90;;;;;;5077272;28;20847;-91
2021/12/10 06:35:19;;;;;;;0.30;0.10;;;-2.10;99.90;;;;;;5069648;28;20203;-89
2021/12/10 06:37:46;;;;;;;0.30;0.20;;;-2.10;99.90;;;;;;5069083;28;20215;-90
2021/12/10 06:40:16;;;;;;;0.30;0.10;;;-2.10;99.90;;;;;;5068123;28;20205;-89
2021/12/10 06:42:45;;;;;;;0.30;0.10;;;-2.10;99.90;;;;;;5059508;28;20198;-90
2021/12/10 06:45:15;;;;;;;0.30;0.10;;;-2.10;99.90;;;;;;5063574;28;20198;-90
2021/12/10 06:47:47;;;;;;;0.30;0.10;;;-2.00;99.90;;;;;;5071089;28;20271;-92
2021/12/10 06:50:16;;;;;;;0.30;0.10;;;-1.90;99.90;;;;;;5073012;28;20224;-90
2021/12/10 06:52:43;;;;;;;0.30;0.10;;;-1.90;99.90;;;;;;5070562;28;20271;-90
2021/12/10 06:55:10;;;;;;;0.30;0.10;;;-1.90;99.90;;;;;;5073234;28;20210;-90
2021/12/10 06:57:37;;;;;;;0.30;0.10;;;-1.80;99.90;;;;;;5062171;28;20821;-91
2021/12/10 07:00:07;;;;;;;0.30;0.10;;;-1.80;99.90;;;;;;5072680;28;20201;-90
2021/12/10 07:02:34;;;;;;;0.30;0.10;;;-1.80;99.90;;;;;;5059234;28;20199;-91
2021/12/10 07:05:01;;;;;;;0.30;0.10;;;-1.70;99.90;;;;;;5052455;28;20209;-91
2021/12/10 07:07:29;;;;;;;0.30;0.10;;;-1.70;99.90;;;;;;5071686;28;20202;-90
2021/12/10 07:09:57;;;;;;;0.30;0.10;;;-1.60;99.90;;;;;;5069893;28;20324;-90
2021/12/10 07:12:24;;;;;;;0.30;0.10;;;-1.60;99.90;;;;;;5052069;28;20722;-89
2021/12/10 07:14:51;;;;;;;0.30;0.10;;;-1.50;99.90;;;;;;5056743;28;20198;-90
2021/12/10 07:17:20;;;;;;;0.30;0.10;;;-1.40;99.90;;;;;;5071290;28;20202;-90
2021/12/10 07:19:47;;;;;;;0.30;0.10;;;-1.40;99.90;;;;;;5073544;28;20205;-90
2021/12/10 07:22:14;;;;;;;0.30;0.10;;;-1.40;99.90;;;;;;5067211;28;20255;-89
2021/12/10 07:24:41;;;;;;;0.30;0.10;;;-1.40;99.90;;;;;;5071493;28;20196;-88
2021/12/10 07:27:09;;;;;;;0.30;0.10;;;-1.50;99.90;;;;;;5075297;28;20252;-93
2021/12/10 07:29:37;;;;;;;0.30;0.10;;;-1.50;99.90;;;;;;5085958;28;20218;-87
2021/12/10 07:32:04;;;;;;;0.30;0.10;;;-1.40;99.90;;;;;;5075426;28;20251;-89
2021/12/10 07:34:33;;;;;;;0.30;0.10;;;-1.40;99.90;;;;;;5074884;28;20288;-92
2021/12/10 07:37:00;;;;;;;0.30;0.10;;;-1.40;99.90;;;;;;5072925;28;20251;-93
2021/12/10 07:39:27;;;;;;;0.30;0.10;;;-1.30;99.90;;;;;;5066354;28;20544;-89
2021/12/10 07:41:54;;;;;;;0.30;0.10;;;-1.20;99.90;;;;;;5055137;28;20198;-89
2021/12/10 07:44:21;;;;;;;0.30;0.20;;;-1.20;99.90;;;;;;5057234;28;20190;-87
2021/12/10 07:46:50;;;;;;;0.30;0.10;;;-1.10;99.90;;;;;;5066515;28;20618;-86
2021/12/10 07:49:23;;;;;;;0.30;0.10;;;-1.00;99.90;;;;;;5066808;28;20220;-86
2021/12/10 07:51:52;;;;;;;0.38;0.32;;;-1.00;99.90;;;;;;5071700;28;20198;-87
2021/12/10 07:54:19;;;;;;;0.30;0.10;;;-0.90;99.90;;;;;;5071069;28;20192;-88
2021/12/10 07:56:46;;;;;;;0.30;0.10;;;-0.90;99.90;;;;;;5072921;28;20206;-90
2021/12/10 07:59:14;;;;;;;0.30;0.10;;;-0.90;99.90;;;;;;5071578;28;20198;-91
2021/12/10 08:01:41;;;;;;;0.30;0.10;;;-0.80;99.90;;;;;;5072658;28;20202;-90
2021/12/10 08:04:08;;;;;;;0.30;0.10;;;-0.70;99.90;;;;;;5071181;28;20210;-90
2021/12/10 08:06:36;;;;;;;0.30;0.10;;;-0.70;99.90;;;;;;5071056;28;20209;-91
2021/12/10 08:09:07;;;;;;;0.30;0.10;;;-0.60;99.90;;;;;;5070275;28;20198;-89
2021/12/10 08:11:36;;;;;;;0.30;0.20;;;-0.60;99.90;;;;;;5071177;28;20281;-88
2021/12/10 08:14:03;;;;;;;0.30;0.10;;;-0.50;99.90;;;;;;5069157;28;20245;-88
2021/12/10 08:16:30;;;;;;;0.30;0.10;;;-0.50;99.90;;;;;;5071259;28;20199;-89
2021/12/10 08:18:57;;;;;;;0.30;0.10;;;-0.40;99.90;;;;;;5070552;28;20203;-91
2021/12/10 08:21:25;;;;;;;0.30;0.10;;;-0.40;99.90;;;;;;5071289;28;20553;-89
2021/12/10 08:23:53;;;;;;;0.30;0.10;;;-0.30;99.90;;;;;;5082260;28;20202;-89
2021/12/10 08:26:22;;;;;;;0.30;0.10;;;-0.30;99.90;;;;;;5088631;28;20267;-88
2021/12/10 08:28:50;;;;;;;0.30;0.10;;;-0.20;99.90;;;;;;5077515;28;20700;-88
2021/12/10 08:31:17;;;;;;;0.30;0.10;;;-0.20;99.90;;;;;;5070743;28;20221;-90
2021/12/10 08:33:47;;;;;;;0.30;0.20;;;-0.10;99.90;;;;;;5072587;28;20344;-91
2021/12/10 08:36:16;;;;;;;0.30;0.10;;;-0.10;99.90;;;;;;5070595;28;20202;-88
2021/12/10 08:38:43;;;;;;;0.30;0.10;;;-0.10;99.90;;;;;;5071624;28;20244;-89
2021/12/10 08:41:14;;;;;;;0.30;0.10;;;0.00;99.90;;;;;;5072518;28;20248;-88
2021/12/10 08:43:43;;;;;;;0.30;0.10;;;0.10;99.90;;;;;;5091066;28;20249;-93
2021/12/10 08:46:12;;;;;;;0.30;0.20;;;0.10;99.90;;;;;;5081255;28;20211;-93
2021/12/10 08:48:40;;;;;;;1.33;1.17;;;0.10;99.90;;;;;;5073488;28;20213;-93
2021/12/10 08:51:10;;;;;;;0.30;0.10;;;0.10;99.90;;;;;;5073876;28;20276;-92
2021/12/10 08:53:37;;;;;;;1.40;0.88;;;0.10;99.90;;;;;;5072365;28;20211;-90
2021/12/10 08:56:05;;;;;;;0.30;0.10;;;0.20;99.90;;;;;;5073615;28;20200;-89
2021/12/10 08:58:33;;;;;;;0.35;0.17;;;0.40;99.90;;;;;;5070207;28;20199;-92
2021/12/10 09:01:05;;;;;;;0.30;0.10;;;0.30;99.90;;;;;;5069808;28;20233;-89
2021/12/10 09:03:33;;;;;;;0.30;0.10;;;0.20;99.90;;;;;;5069880;28;20690;-90
2021/12/10 09:06:01;;;;;;;0.30;0.10;;;0.30;99.90;;;;;;5070560;28;20230;-90
2021/12/10 09:08:28;;;;;;;0.30;0.17;;;0.30;99.90;;;;;;5064625;28;20207;-89
2021/12/10 09:10:55;;;;;;;0.30;0.10;;;0.30;99.90;;;;;;5079352;28;20234;-89
2021/12/10 09:13:24;;;;;;;0.30;0.10;;;0.30;99.90;;;;;;5073897;28;20206;-89
2021/12/10 09:15:54;;;;;;;0.30;0.10;;;0.40;99.90;;;;;;5083292;28;20203;-89
2021/12/10 09:18:22;;;;;;;0.30;0.10;;;0.30;99.90;;;;;;5079592;28;20196;-90
2021/12/10 09:20:54;;;;;;;0.30;0.10;;;0.20;99.90;;;;;;5072585;28;20199;-90
2021/12/10 09:23:24;;;;;;;3.80;1.88;;;0.10;99.90;;;;;;5082791;28;20195;-90
2021/12/10 09:25:57;;;;;;;0.30;0.10;;;0.10;99.90;;;;;;5074274;28;20708;-90
2021/12/10 09:28:25;;;;;;;0.30;0.10;;;0.10;99.90;;;;;;5074194;28;20232;-89
2021/12/10 09:30:55;;;;;;;0.73;0.40;;;0.20;99.90;;;;;;5092787;28;20275;-90
2021/12/10 09:33:24;;;;;;;0.30;0.10;;;0.30;99.90;;;;;;5093124;28;20267;-89
2021/12/10 09:35:51;;;;;;;0.30;0.10;;;0.20;99.90;;;;;;5072110;28;20207;-90
2021/12/10 09:38:20;;;;;;;0.30;0.10;;;0.30;99.90;;;;;;5062117;28;20280;-90
2021/12/10 09:40:49;;;;;;;0.30;0.10;;;0.30;99.90;;;;;;5072641;28;20199;-89
2021/12/10 09:43:17;;;;;;;0.30;0.10;;;0.50;99.90;;;;;;5071274;28;20255;-90
2021/12/10 09:45:46;;;;;;;0.30;0.10;;;0.60;99.90;;;;;;5070040;28;20203;-90
2021/12/10 09:48:16;;;;;;;0.57;0.30;;;0.70;99.90;;;;;;5070174;28;20199;-90
2021/12/10 09:50:48;;;;;;;0.30;0.10;;;0.80;99.90;;;;;;5070645;28;20617;-90
2021/12/10 09:53:15;;;;;;;0.30;0.10;;;0.80;99.90;;;;;;5076199;28;20199;-88
2021/12/10 09:55:46;;;;;;;0.40;0.30;;;0.90;99.90;;;;;;5067607;28;20737;-89
2021/12/10 09:58:14;;;;;;;0.30;0.10;;;0.90;99.90;;;;;;5074029;28;20206;-89
2021/12/10 10:00:44;;;;;;;0.30;0.10;;;0.90;99.90;;;;;;5072298;28;20284;-92
2021/12/10 10:03:15;;;;;;;0.30;0.10;;;1.10;99.90;;;;;;5070415;28;20249;-91
2021/12/10 10:05:45;;;;;;;0.30;0.10;;;1.10;99.90;;;;;;5069454;28;20201;-91
2021/12/10 10:08:16;;;;;;;0.30;0.10;;;1.10;99.90;;;;;;5069808;28;20654;-92
2021/12/10 10:10:50;;;;;;;0.93;0.38;;;1.10;99.90;;;;;;5068291;28;20224;-92
2021/12/10 10:13:19;;;;;;;0.30;0.10;;;1.30;99.90;;;;;;5070457;28;20627;-91
2021/12/10 10:15:48;;;;;;;0.30;0.10;;;1.30;99.90;;;;;;5080767;28;20200;-92
2021/12/10 10:18:18;;;;;;;0.40;0.28;;;1.30;99.90;;;;;;5091430;28;20200;-91
2021/12/10 10:20:52;;;;;;;0.30;0.20;;;1.40;99.90;;;;;;5079795;28;20197;-92
2021/12/10 10:23:20;;;;;;;0.30;0.20;;;1.40;99.90;;;;;;5068006;28;20218;-92
2021/12/10 10:25:51;;;;;;;2.63;1.15;;;1.60;99.90;;;;;;5069272;28;20209;-93
2021/12/10 10:28:19;;;;;;;0.30;0.10;;;1.80;99.90;;;;;;5069592;28;20230;-91
2021/12/10 10:30:53;;;;;;;0.30;0.10;;;1.70;99.90;;;;;;5069426;28;20738;-91
2021/12/10 10:33:21;;;;;;;0.30;0.10;;;1.70;99.90;;;;;;5069237;28;20568;-92
2021/12/10 10:35:53;;;;;;;0.30;0.10;;;1.70;99.90;;;;;;5068923;28;20500;-92
2021/12/10 10:38:21;;;;;;;0.30;0.20;;;1.90;99.90;;;;;;5079529;28;20940;-93
2021/12/10 10:40:54;;;;;;;0.30;0.10;;;2.00;99.90;;;;;;5089353;28;20208;-92
2021/12/10 10:43:22;;;;;;;0.40;0.30;;;2.10;99.90;;;;;;5085077;28;20916;-92
2021/12/10 10:45:50;;;;;;;0.30;0.10;;;2.10;99.90;;;;;;5066057;28;20876;-91
2021/12/10 10:48:19;;;;;;;0.30;0.10;;;2.30;99.90;;;;;;5063014;28;20468;-92
2021/12/10 10:50:52;;;;;;;0.30;0.10;;;2.20;99.90;;;;;;5054804;28;20509;-91
2021/12/10 10:53:22;;;;;;;0.30;0.10;;;2.40;99.90;;;;;;5069469;28;20504;-91
2021/12/10 10:55:53;;;;;;;0.30;0.10;;;2.30;99.90;;;;;;5069126;28;20463;-92
2021/12/10 10:58:22;;;;;;;0.30;0.10;;;2.40;99.90;;;;;;5069535;28;20513;-91
2021/12/10 11:00:59;;;;;;;0.30;0.10;;;2.30;99.90;;;;;;5085405;28;20470;-91
2021/12/10 11:03:38;;;;;;;0.30;0.10;;;2.20;99.90;;;;;;5077125;28;20446;-91
2021/12/10 11:06:10;;;;;;;0.30;0.10;;;2.20;99.90;;;;;;5072932;28;20530;-91
2021/12/10 11:08:42;;;;;;;0.30;0.10;;;2.20;99.90;;;;;;5069871;28;20521;-92
2021/12/10 11:11:15;;;;;;;0.30;0.20;;;2.40;99.90;;;;;;5075766;28;20587;-90
2021/12/10 11:13:43;;;;;;;0.30;0.10;;;2.30;99.90;;;;;;5093589;28;20497;-91
2021/12/10 11:16:12;;;;;;;0.30;0.10;;;2.50;99.90;;;;;;5088461;28;20451;-91
2021/12/10 11:18:44;;;;;;;0.30;0.10;;;2.50;99.90;;;;;;5074013;28;20529;-91
2021/12/10 11:21:14;;;;;;;0.30;0.20;;;2.50;99.90;;;;;;5073533;28;20833;-91
2021/12/10 11:23:42;;;;;;;0.30;0.10;;;2.50;99.90;;;;;;5072106;28;20545;-91
2021/12/10 11:26:11;;;;;;;0.30;0.10;;;2.50;99.90;;;;;;5072354;28;20953;-92
2021/12/10 11:28:41;;;;;;;0.30;0.10;;;2.60;99.90;;;;;;5072652;28;20482;-91
2021/12/10 11:31:11;;;;;;;0.70;0.60;;;2.60;99.90;;;;;;5072827;28;20497;-91
2021/12/10 11:33:42;;;;;;;0.30;0.10;;;2.70;99.90;;;;;;5072418;28;20826;-90
2021/12/10 11:36:11;;;;;;;0.30;0.10;;;2.60;99.90;;;;;;5073781;28;20439;-91
2021/12/10 11:38:40;;;;;;;0.30;0.10;;;2.80;99.90;;;;;;5071576;28;20460;-89
2021/12/10 11:41:09;;;;;;;0.30;0.10;;;2.90;99.90;;;;;;5072592;28;20450;-89
2021/12/10 11:43:52;;;;;;;1.07;1.07;;;2.90;99.90;;;;;;5073226;28;20434;-90
2021/12/10 11:46:43;;;;;;;0.40;0.23;;;2.70;99.90;;;;;;5072110;28;20875;-89
2021/12/10 11:49:17;;;;;;;0.30;0.10;;;2.80;99.90;;;;;;5073034;28;20439;-89
2021/12/10 11:51:47;;;;;;;0.30;0.10;;;2.80;99.90;;;;;;5071540;28;21307;-89
2021/12/10 11:54:27;;;;;;;0.30;0.20;;;2.80;99.90;;;;;;5072657;28;20496;-88
2021/12/10 11:56:58;;;;;;;0.30;0.10;;;3.00;99.90;;;;;;5073277;28;20424;-89
2021/12/10 11:59:28;;;;;;;0.30;0.20;;;3.10;99.90;;;;;;5074401;28;20795;-91
2021/12/10 12:01:58;;;;;;;0.30;0.10;;;2.80;99.90;;;;;;5084408;28;20857;-90
2021/12/10 12:04:29;;;;;;;0.30;0.13;;;2.80;99.90;;;;;;5092641;28;20493;-89
2021/12/10 12:07:35;;;;;;;0.30;0.10;;;2.80;99.90;;;;;;5085284;28;20459;-89
2021/12/10 12:10:11;;;;;;;0.30;0.20;;;2.70;99.90;;;;;;5090785;28;20495;-89
2021/12/10 12:12:41;;;;;;;0.30;0.20;;;2.70;99.90;;;;;;5085947;28;20446;-88
2021/12/10 12:15:21;;;;;;;0.30;0.10;;;2.90;99.90;;;;;;5071954;28;20456;-88
2021/12/10 12:17:51;;;;;;;0.63;0.63;;;3.10;99.90;;;;;;5072032;28;20451;-85
2021/12/10 12:20:41;;;;;;;0.30;0.10;;;3.00;99.90;;;;;;5071181;28;20505;-84
2021/12/10 12:26:04;;;;;;;0.30;0.20;;;3.10;99.90;;;;;;5071626;28;20570;-84
2021/12/10 12:28:31;;;;;;;0.30;0.10;;;3.00;99.90;;;;;;5070498;28;20487;-84
2021/12/10 12:31:03;;;;;;;0.30;0.10;;;3.00;99.90;;;;;;5070360;28;21302;-84
2021/12/10 12:33:33;;;;;;;0.30;0.10;;;2.90;99.90;;;;;;5071834;28;20432;-83
2021/12/10 12:36:01;;;;;;;2.50;0.87;;;2.90;99.90;;;;;;5070505;28;20499;-84
2021/12/10 12:38:30;;;;;;;0.30;0.10;;;3.00;99.90;;;;;;5070233;28;20489;-84
2021/12/10 12:41:14;;;;;;;0.40;0.40;;;3.00;99.90;;;;;;5071403;28;20457;-84
2021/12/10 12:43:44;;;;;;;0.30;0.10;;;3.20;99.90;;;;;;5070766;28;20525;-84
2021/12/10 12:46:13;;;;;;;0.30;0.10;;;3.20;99.90;;;;;;5070741;28;20451;-84
2021/12/10 12:48:59;;;;;;;0.30;0.10;;;3.10;99.90;;;;;;5078097;28;20941;-83
2021/12/10 12:51:26;;;;;;;0.30;0.10;;;3.10;99.90;;;;;;5091095;28;20482;-84
2021/12/10 12:53:56;;;;;;;3.30;2.20;;;3.00;99.90;;;;;;5091276;28;20443;-84
2021/12/10 12:56:29;;;;;;;0.30;0.10;;;2.90;99.90;;;;;;5078753;28;20459;-83
2021/12/10 12:59:01;;;;;;;0.30;0.10;;;2.90;99.90;;;;;;5070684;28;21012;-83
2021/12/10 13:01:34;;;;;;;0.40;0.30;;;2.90;99.90;;;;;;5070711;28;20468;-84
2021/12/10 13:04:05;;;;;;;0.30;0.10;;;2.90;99.90;;;;;;5078420;28;20471;-84
2021/12/10 13:06:36;;;;;;;0.30;0.10;;;2.90;99.90;;;;;;5101659;28;20804;-83
2021/12/10 13:09:09;;;;;;;0.30;0.10;;;2.90;99.90;;;;;;5086845;28;20440;-84
2021/12/10 13:11:52;;;;;;;0.30;0.10;;;3.00;99.90;;;;;;5070387;28;20901;-84
2021/12/10 13:14:21;;;;;;;0.30;0.20;;;3.10;99.90;;;;;;5069036;28;20444;-84
2021/12/10 13:16:51;;;;;;;0.30;0.10;;;3.10;99.90;;;;;;5070451;28;20505;-83
2021/12/10 13:19:21;;;;;;;0.30;0.10;;;3.20;99.90;;;;;;5060133;28;20472;-83